sensor_id;sensor_type;location;lat;lon;timestamp;pressure;altitude;pressure_sealevel;temperature
45393;BMP280;31129;44.810;10.334;2023-04-07T00:01:15;100834.47;;;10.69
45393;BMP280;31129;44.810;10.334;2023-04-07T00:03:41;100835.06;;;10.73
45393;BMP280;31129;44.810;10.334;2023-04-07T00:06:08;100835.28;;;10.60
45393;BMP280;31129;44.810;10.334;2023-04-07T00:08:34;100831.19;;;10.56
45393;BMP280;31129;44.810;10.334;2023-04-07T00:10:59;100834.13;;;10.43
45393;BMP280;31129;44.810;10.334;2023-04-07T00:13:25;100828.78;;;10.49
45393;BMP280;31129;44.810;10.334;2023-04-07T00:15:50;100829.25;;;10.47
45393;BMP280;31129;44.810;10.334;2023-04-07T00:18:15;100819.31;;;10.26
45393;BMP280;31129;44.810;10.334;2023-04-07T00:20:41;100819.84;;;10.39
45393;BMP280;31129;44.810;10.334;2023-04-07T00:23:09;100808.94;;;10.39
45393;BMP280;31129;44.810;10.334;2023-04-07T00:25:34;100815.97;;;10.31
45393;BMP280;31129;44.810;10.334;2023-04-07T00:28:00;100805.16;;;10.37
45393;BMP280;31129;44.810;10.334;2023-04-07T00:30:25;100806.91;;;10.25
45393;BMP280;31129;44.810;10.334;2023-04-07T00:32:51;100796.13;;;10.21
45393;BMP280;31129;44.810;10.334;2023-04-07T00:35:16;100805.81;;;10.31
45393;BMP280;31129;44.810;10.334;2023-04-07T00:37:42;100799.91;;;10.33
45393;BMP280;31129;44.810;10.334;2023-04-07T00:40:07;100799.44;;;10.35
45393;BMP280;31129;44.810;10.334;2023-04-07T00:42:33;100790.19;;;10.32
45393;BMP280;31129;44.810;10.334;2023-04-07T00:44:59;100791.13;;;10.29
45393;BMP280;31129;44.810;10.334;2023-04-07T00:47:25;100786.25;;;10.33
45393;BMP280;31129;44.810;10.334;2023-04-07T00:49:50;100773.38;;;10.33
45393;BMP280;31129;44.810;10.334;2023-04-07T00:52:16;100775.50;;;10.29
45393;BMP280;31129;44.810;10.334;2023-04-07T00:54:43;100775.25;;;10.27
45393;BMP280;31129;44.810;10.334;2023-04-07T00:57:08;100773.09;;;10.22
45393;BMP280;31129;44.810;10.334;2023-04-07T00:59:34;100771.00;;;10.17
45393;BMP280;31129;44.810;10.334;2023-04-07T01:02:23;100774.19;;;10.16
45393;BMP280;31129;44.810;10.334;2023-04-07T01:08:19;100777.22;;;10.18
45393;BMP280;31129;44.810;10.334;2023-04-07T01:10:51;100777.38;;;10.14
45393;BMP280;31129;44.810;10.334;2023-04-07T01:13:22;100762.69;;;10.12
45393;BMP280;31129;44.810;10.334;2023-04-07T01:15:54;100775.41;;;10.15
45393;BMP280;31129;44.810;10.334;2023-04-07T01:18:30;100759.38;;;10.08
45393;BMP280;31129;44.810;10.334;2023-04-07T01:21:03;100765.91;;;10.10
45393;BMP280;31129;44.810;10.334;2023-04-07T01:26:27;100771.63;;;10.03
45393;BMP280;31129;44.810;10.334;2023-04-07T01:29:03;100768.78;;;9.97
45393;BMP280;31129;44.810;10.334;2023-04-07T01:31:31;100766.69;;;9.83
45393;BMP280;31129;44.810;10.334;2023-04-07T01:33:59;100767.16;;;9.82
45393;BMP280;31129;44.810;10.334;2023-04-07T01:36:26;100766.09;;;9.70
45393;BMP280;31129;44.810;10.334;2023-04-07T01:38:57;100767.72;;;9.86
45393;BMP280;31129;44.810;10.334;2023-04-07T01:41:24;100777.16;;;9.85
45393;BMP280;31129;44.810;10.334;2023-04-07T01:43:51;100772.91;;;9.84
45393;BMP280;31129;44.810;10.334;2023-04-07T01:46:17;100770.00;;;9.87
45393;BMP280;31129;44.810;10.334;2023-04-07T01:48:43;100769.56;;;9.80
45393;BMP280;31129;44.810;10.334;2023-04-07T01:51:09;100767.28;;;9.87
45393;BMP280;31129;44.810;10.334;2023-04-07T01:53:37;100768.81;;;9.79
45393;BMP280;31129;44.810;10.334;2023-04-07T01:56:03;100770.94;;;9.84
45393;BMP280;31129;44.810;10.334;2023-04-07T01:58:30;100768.38;;;9.81
45393;BMP280;31129;44.810;10.334;2023-04-07T02:00:56;100765.19;;;9.82
45393;BMP280;31129;44.810;10.334;2023-04-07T02:03:27;100765.19;;;9.73
45393;BMP280;31129;44.810;10.334;2023-04-07T02:05:56;100766.84;;;9.80
45393;BMP280;31129;44.810;10.334;2023-04-07T02:08:27;100771.69;;;9.85
45393;BMP280;31129;44.810;10.334;2023-04-07T02:10:55;100772.59;;;9.82
45393;BMP280;31129;44.810;10.334;2023-04-07T02:13:22;100768.47;;;9.77
45393;BMP280;31129;44.810;10.334;2023-04-07T02:15:50;100768.38;;;9.81
45393;BMP280;31129;44.810;10.334;2023-04-07T02:18:18;100774.88;;;9.74
45393;BMP280;31129;44.810;10.334;2023-04-07T02:20:44;100778.94;;;9.79
45393;BMP280;31129;44.810;10.334;2023-04-07T02:23:11;100776.84;;;9.83
45393;BMP280;31129;44.810;10.334;2023-04-07T02:25:37;100779.38;;;9.77
45393;BMP280;31129;44.810;10.334;2023-04-07T02:28:03;100778.34;;;9.75
45393;BMP280;31129;44.810;10.334;2023-04-07T02:30:30;100775.16;;;9.67
45393;BMP280;31129;44.810;10.334;2023-04-07T02:32:55;100776.53;;;9.53
45393;BMP280;31129;44.810;10.334;2023-04-07T02:35:21;100779.88;;;9.67
45393;BMP280;31129;44.810;10.334;2023-04-07T02:37:47;100787.00;;;9.64
45393;BMP280;31129;44.810;10.334;2023-04-07T02:40:13;100778.38;;;9.56
45393;BMP280;31129;44.810;10.334;2023-04-07T02:42:39;100777.44;;;9.59
45393;BMP280;31129;44.810;10.334;2023-04-07T02:45:06;100781.09;;;9.38
45393;BMP280;31129;44.810;10.334;2023-04-07T02:47:32;100784.06;;;9.31
45393;BMP280;31129;44.810;10.334;2023-04-07T02:49:58;100778.50;;;9.35
45393;BMP280;31129;44.810;10.334;2023-04-07T02:52:23;100780.63;;;9.40
45393;BMP280;31129;44.810;10.334;2023-04-07T02:54:49;100779.38;;;9.32
45393;BMP280;31129;44.810;10.334;2023-04-07T02:57:18;100773.94;;;9.32
45393;BMP280;31129;44.810;10.334;2023-04-07T02:59:44;100772.91;;;9.20
45393;BMP280;31129;44.810;10.334;2023-04-07T03:02:11;100767.72;;;9.13
45393;BMP280;31129;44.810;10.334;2023-04-07T03:04:37;100770.44;;;9.04
45393;BMP280;31129;44.810;10.334;2023-04-07T03:07:02;100769.41;;;9.10
45393;BMP280;31129;44.810;10.334;2023-04-07T03:09:30;100768.03;;;9.06
45393;BMP280;31129;44.810;10.334;2023-04-07T03:11:55;100771.31;;;8.91
45393;BMP280;31129;44.810;10.334;2023-04-07T03:14:21;100766.28;;;8.81
45393;BMP280;31129;44.810;10.334;2023-04-07T03:16:51;100768.69;;;8.79
45393;BMP280;31129;44.810;10.334;2023-04-07T03:19:17;100766.69;;;8.70
45393;BMP280;31129;44.810;10.334;2023-04-07T03:21:45;100774.72;;;8.74
45393;BMP280;31129;44.810;10.334;2023-04-07T03:24:11;100775.47;;;8.74
45393;BMP280;31129;44.810;10.334;2023-04-07T03:26:37;100766.25;;;8.72
45393;BMP280;31129;44.810;10.334;2023-04-07T03:29:05;100766.06;;;8.66
45393;BMP280;31129;44.810;10.334;2023-04-07T03:31:30;100767.97;;;8.47
45393;BMP280;31129;44.810;10.334;2023-04-07T03:33:56;100769.50;;;8.48
45393;BMP280;31129;44.810;10.334;2023-04-07T03:36:21;100774.56;;;8.37
45393;BMP280;31129;44.810;10.334;2023-04-07T03:38:49;100771.13;;;8.15
45393;BMP280;31129;44.810;10.334;2023-04-07T03:41:16;100776.22;;;8.35
45393;BMP280;31129;44.810;10.334;2023-04-07T03:43:41;100772.91;;;8.40
45393;BMP280;31129;44.810;10.334;2023-04-07T03:46:08;100770.47;;;8.33
45393;BMP280;31129;44.810;10.334;2023-04-07T03:48:33;100770.16;;;8.31
45393;BMP280;31129;44.810;10.334;2023-04-07T03:51:04;100767.00;;;8.32
45393;BMP280;31129;44.810;10.334;2023-04-07T03:53:30;100783.66;;;8.43
45393;BMP280;31129;44.810;10.334;2023-04-07T03:55:57;100779.25;;;8.37
45393;BMP280;31129;44.810;10.334;2023-04-07T03:58:41;100775.84;;;8.23
45393;BMP280;31129;44.810;10.334;2023-04-07T04:01:11;100783.47;;;8.38
45393;BMP280;31129;44.810;10.334;2023-04-07T04:03:38;100783.53;;;8.47
45393;BMP280;31129;44.810;10.334;2023-04-07T04:06:16;100784.13;;;8.20
45393;BMP280;31129;44.810;10.334;2023-04-07T04:08:42;100793.94;;;8.17
45393;BMP280;31129;44.810;10.334;2023-04-07T04:11:12;100802.53;;;8.16
45393;BMP280;31129;44.810;10.334;2023-04-07T04:13:44;100799.69;;;7.98
45393;BMP280;31129;44.810;10.334;2023-04-07T04:16:11;100793.00;;;7.89
45393;BMP280;31129;44.810;10.334;2023-04-07T04:18:37;100777.13;;;7.88
45393;BMP280;31129;44.810;10.334;2023-04-07T04:21:07;100772.47;;;7.88
45393;BMP280;31129;44.810;10.334;2023-04-07T04:23:33;100778.06;;;7.72
45393;BMP280;31129;44.810;10.334;2023-04-07T04:25:59;100783.16;;;7.70
45393;BMP280;31129;44.810;10.334;2023-04-07T04:28:28;100787.47;;;7.80
45393;BMP280;31129;44.810;10.334;2023-04-07T04:30:54;100783.06;;;7.74
45393;BMP280;31129;44.810;10.334;2023-04-07T04:33:20;100783.22;;;7.79
45393;BMP280;31129;44.810;10.334;2023-04-07T04:35:53;100784.19;;;7.85
45393;BMP280;31129;44.810;10.334;2023-04-07T04:38:20;100782.63;;;7.97
45393;BMP280;31129;44.810;10.334;2023-04-07T04:40:52;100788.44;;;7.86
45393;BMP280;31129;44.810;10.334;2023-04-07T04:43:23;100777.91;;;7.88
45393;BMP280;31129;44.810;10.334;2023-04-07T04:45:51;100772.19;;;7.96
45393;BMP280;31129;44.810;10.334;2023-04-07T04:48:20;100778.50;;;7.92
45393;BMP280;31129;44.810;10.334;2023-04-07T04:50:46;100772.31;;;7.92
45393;BMP280;31129;44.810;10.334;2023-04-07T04:53:13;100780.72;;;8.07
45393;BMP280;31129;44.810;10.334;2023-04-07T04:55:45;100776.13;;;8.16
45393;BMP280;31129;44.810;10.334;2023-04-07T04:58:19;100769.91;;;8.16
45393;BMP280;31129;44.810;10.334;2023-04-07T05:00:48;100769.53;;;8.26
45393;BMP280;31129;44.810;10.334;2023-04-07T05:03:13;100768.44;;;8.24
45393;BMP280;31129;44.810;10.334;2023-04-07T05:05:41;100775.59;;;8.31
45393;BMP280;31129;44.810;10.334;2023-04-07T05:08:10;100771.38;;;8.30
45393;BMP280;31129;44.810;10.334;2023-04-07T05:10:37;100769.84;;;8.29
45393;BMP280;31129;44.810;10.334;2023-04-07T05:13:07;100764.97;;;8.23
45393;BMP280;31129;44.810;10.334;2023-04-07T05:15:34;100759.09;;;8.25
45393;BMP280;31129;44.810;10.334;2023-04-07T05:18:00;100754.75;;;8.27
45393;BMP280;31129;44.810;10.334;2023-04-07T05:20:26;100751.75;;;8.35
45393;BMP280;31129;44.810;10.334;2023-04-07T05:22:52;100751.09;;;8.52
45393;BMP280;31129;44.810;10.334;2023-04-07T05:25:20;100753.09;;;8.61
45393;BMP280;31129;44.810;10.334;2023-04-07T05:27:49;100745.38;;;8.59
45393;BMP280;31129;44.810;10.334;2023-04-07T05:30:15;100755.19;;;8.66
45393;BMP280;31129;44.810;10.334;2023-04-07T05:32:40;100753.84;;;8.71
45393;BMP280;31129;44.810;10.334;2023-04-07T05:35:15;100743.06;;;8.89
45393;BMP280;31129;44.810;10.334;2023-04-07T05:37:47;100744.13;;;8.91
45393;BMP280;31129;44.810;10.334;2023-04-07T05:40:13;100743.63;;;8.93
45393;BMP280;31129;44.810;10.334;2023-04-07T05:42:38;100749.41;;;8.95
45393;BMP280;31129;44.810;10.334;2023-04-07T05:45:04;100742.78;;;9.05
45393;BMP280;31129;44.810;10.334;2023-04-07T05:47:31;100742.47;;;9.03
45393;BMP280;31129;44.810;10.334;2023-04-07T05:49:58;100744.28;;;9.06
45393;BMP280;31129;44.810;10.334;2023-04-07T05:52:24;100747.19;;;9.03
45393;BMP280;31129;44.810;10.334;2023-04-07T05:54:59;100750.03;;;9.08
45393;BMP280;31129;44.810;10.334;2023-04-07T05:57:27;100758.50;;;9.10
45393;BMP280;31129;44.810;10.334;2023-04-07T05:59:55;100760.03;;;9.11
45393;BMP280;31129;44.810;10.334;2023-04-07T06:02:21;100756.06;;;9.12
45393;BMP280;31129;44.810;10.334;2023-04-07T06:04:46;100752.31;;;9.10
45393;BMP280;31129;44.810;10.334;2023-04-07T06:07:15;100758.66;;;9.25
45393;BMP280;31129;44.810;10.334;2023-04-07T06:09:41;100762.91;;;9.26
45393;BMP280;31129;44.810;10.334;2023-04-07T06:12:07;100759.75;;;9.37
45393;BMP280;31129;44.810;10.334;2023-04-07T06:14:33;100756.84;;;9.31
45393;BMP280;31129;44.810;10.334;2023-04-07T06:17:02;100757.00;;;9.46
45393;BMP280;31129;44.810;10.334;2023-04-07T06:19:27;100755.97;;;9.52
45393;BMP280;31129;44.810;10.334;2023-04-07T06:21:53;100756.72;;;9.44
45393;BMP280;31129;44.810;10.334;2023-04-07T06:24:18;100754.13;;;9.58
45393;BMP280;31129;44.810;10.334;2023-04-07T06:26:47;100756.41;;;9.69
45393;BMP280;31129;44.810;10.334;2023-04-07T06:29:13;100756.56;;;9.84
45393;BMP280;31129;44.810;10.334;2023-04-07T06:31:39;100754.88;;;9.86
45393;BMP280;31129;44.810;10.334;2023-04-07T06:34:08;100763.34;;;9.97
45393;BMP280;31129;44.810;10.334;2023-04-07T06:36:33;100757.19;;;10.21
45393;BMP280;31129;44.810;10.334;2023-04-07T06:38:59;100754.75;;;10.23
45393;BMP280;31129;44.810;10.334;2023-04-07T06:41:24;100755.53;;;10.23
45393;BMP280;31129;44.810;10.334;2023-04-07T06:43:50;100760.94;;;10.42
45393;BMP280;31129;44.810;10.334;2023-04-07T06:46:16;100746.88;;;10.34
45393;BMP280;31129;44.810;10.334;2023-04-07T06:48:41;100748.38;;;10.35
45393;BMP280;31129;44.810;10.334;2023-04-07T06:51:07;100756.53;;;10.44
45393;BMP280;31129;44.810;10.334;2023-04-07T06:53:32;100763.00;;;10.56
45393;BMP280;31129;44.810;10.334;2023-04-07T06:58:29;100764.56;;;10.72
45393;BMP280;31129;44.810;10.334;2023-04-07T07:00:54;100768.22;;;10.68
45393;BMP280;31129;44.810;10.334;2023-04-07T07:03:20;100766.59;;;10.86
45393;BMP280;31129;44.810;10.334;2023-04-07T07:05:46;100770.63;;;10.76
45393;BMP280;31129;44.810;10.334;2023-04-07T07:08:11;100761.63;;;10.84
45393;BMP280;31129;44.810;10.334;2023-04-07T07:10:36;100754.59;;;10.92
45393;BMP280;31129;44.810;10.334;2023-04-07T07:13:02;100753.03;;;11.00
45393;BMP280;31129;44.810;10.334;2023-04-07T07:15:27;100760.91;;;11.22
45393;BMP280;31129;44.810;10.334;2023-04-07T07:17:52;100760.97;;;11.13
45393;BMP280;31129;44.810;10.334;2023-04-07T07:20:18;100759.22;;;11.25
45393;BMP280;31129;44.810;10.334;2023-04-07T07:22:43;100758.88;;;11.32
45393;BMP280;31129;44.810;10.334;2023-04-07T07:25:09;100751.34;;;11.42
45393;BMP280;31129;44.810;10.334;2023-04-07T07:27:37;100755.78;;;11.39
45393;BMP280;31129;44.810;10.334;2023-04-07T07:30:04;100755.41;;;11.46
45393;BMP280;31129;44.810;10.334;2023-04-07T07:32:30;100753.63;;;11.58
45393;BMP280;31129;44.810;10.334;2023-04-07T07:34:55;100754.94;;;11.62
45393;BMP280;31129;44.810;10.334;2023-04-07T07:37:21;100760.06;;;11.84
45393;BMP280;31129;44.810;10.334;2023-04-07T07:39:46;100760.13;;;11.75
45393;BMP280;31129;44.810;10.334;2023-04-07T07:42:11;100758.06;;;11.85
45393;BMP280;31129;44.810;10.334;2023-04-07T07:44:37;100750.34;;;11.98
45393;BMP280;31129;44.810;10.334;2023-04-07T07:47:02;100756.84;;;12.00
45393;BMP280;31129;44.810;10.334;2023-04-07T07:49:27;100751.47;;;11.91
45393;BMP280;31129;44.810;10.334;2023-04-07T07:51:53;100750.41;;;12.03
45393;BMP280;31129;44.810;10.334;2023-04-07T07:54:18;100751.56;;;12.12
45393;BMP280;31129;44.810;10.334;2023-04-07T07:56:44;100750.69;;;12.20
45393;BMP280;31129;44.810;10.334;2023-04-07T07:59:09;100746.69;;;12.21
45393;BMP280;31129;44.810;10.334;2023-04-07T08:01:34;100748.22;;;12.07
45393;BMP280;31129;44.810;10.334;2023-04-07T08:04:00;100738.81;;;12.08
45393;BMP280;31129;44.810;10.334;2023-04-07T08:06:26;100744.38;;;12.14
45393;BMP280;31129;44.810;10.334;2023-04-07T08:08:53;100745.91;;;12.35
45393;BMP280;31129;44.810;10.334;2023-04-07T08:11:18;100741.66;;;12.34
45393;BMP280;31129;44.810;10.334;2023-04-07T08:13:45;100748.13;;;12.31
45393;BMP280;31129;44.810;10.334;2023-04-07T08:16:10;100747.31;;;12.45
45393;BMP280;31129;44.810;10.334;2023-04-07T08:18:36;100751.78;;;12.28
45393;BMP280;31129;44.810;10.334;2023-04-07T08:21:03;100758.50;;;12.27
45393;BMP280;31129;44.810;10.334;2023-04-07T08:23:30;100759.97;;;12.43
45393;BMP280;31129;44.810;10.334;2023-04-07T08:25:55;100757.66;;;12.56
45393;BMP280;31129;44.810;10.334;2023-04-07T08:28:25;100762.59;;;12.52
45393;BMP280;31129;44.810;10.334;2023-04-07T08:30:51;100763.97;;;12.62
45393;BMP280;31129;44.810;10.334;2023-04-07T08:33:16;100760.75;;;12.64
45393;BMP280;31129;44.810;10.334;2023-04-07T08:35:41;100757.00;;;12.61
45393;BMP280;31129;44.810;10.334;2023-04-07T08:38:07;100757.31;;;12.69
45393;BMP280;31129;44.810;10.334;2023-04-07T08:40:34;100758.19;;;12.95
45393;BMP280;31129;44.810;10.334;2023-04-07T08:43:00;100756.09;;;12.90
45393;BMP280;31129;44.810;10.334;2023-04-07T08:45:27;100759.56;;;12.85
45393;BMP280;31129;44.810;10.334;2023-04-07T08:47:54;100760.84;;;12.90
45393;BMP280;31129;44.810;10.334;2023-04-07T08:50:25;100749.09;;;13.09
45393;BMP280;31129;44.810;10.334;2023-04-07T08:52:55;100754.09;;;13.11
45393;BMP280;31129;44.810;10.334;2023-04-07T08:55:22;100748.97;;;13.18
45393;BMP280;31129;44.810;10.334;2023-04-07T08:57:47;100750.25;;;13.23
45393;BMP280;31129;44.810;10.334;2023-04-07T09:00:13;100745.13;;;13.31
45393;BMP280;31129;44.810;10.334;2023-04-07T09:02:42;100741.59;;;13.30
45393;BMP280;31129;44.810;10.334;2023-04-07T09:05:13;100743.56;;;13.50
45393;BMP280;31129;44.810;10.334;2023-04-07T09:07:39;100751.44;;;13.42
45393;BMP280;31129;44.810;10.334;2023-04-07T09:10:05;100745.72;;;13.40
45393;BMP280;31129;44.810;10.334;2023-04-07T09:12:32;100744.59;;;13.52
45393;BMP280;31129;44.810;10.334;2023-04-07T09:14:57;100733.47;;;13.67
45393;BMP280;31129;44.810;10.334;2023-04-07T09:17:27;100740.00;;;13.70
45393;BMP280;31129;44.810;10.334;2023-04-07T09:19:57;100744.84;;;13.86
45393;BMP280;31129;44.810;10.334;2023-04-07T09:22:39;100737.75;;;13.74
45393;BMP280;31129;44.810;10.334;2023-04-07T09:25:16;100738.63;;;13.85
45393;BMP280;31129;44.810;10.334;2023-04-07T09:27:59;100742.72;;;14.01
45393;BMP280;31129;44.810;10.334;2023-04-07T09:30:26;100733.09;;;14.17
45393;BMP280;31129;44.810;10.334;2023-04-07T09:32:51;100730.94;;;14.32
45393;BMP280;31129;44.810;10.334;2023-04-07T09:35:17;100729.84;;;14.18
45393;BMP280;31129;44.810;10.334;2023-04-07T09:37:42;100723.44;;;14.27
45393;BMP280;31129;44.810;10.334;2023-04-07T09:40:09;100726.22;;;14.33
45393;BMP280;31129;44.810;10.334;2023-04-07T09:42:44;100722.81;;;14.54
45393;BMP280;31129;44.810;10.334;2023-04-07T09:45:09;100720.88;;;14.72
45393;BMP280;31129;44.810;10.334;2023-04-07T09:47:35;100714.44;;;14.86
45393;BMP280;31129;44.810;10.334;2023-04-07T09:50:00;100708.25;;;15.19
45393;BMP280;31129;44.810;10.334;2023-04-07T09:52:52;100708.53;;;15.26
45393;BMP280;31129;44.810;10.334;2023-04-07T09:55:22;100712.28;;;15.34
45393;BMP280;31129;44.810;10.334;2023-04-07T09:57:49;100705.31;;;15.33
45393;BMP280;31129;44.810;10.334;2023-04-07T10:00:15;100703.78;;;15.66
45393;BMP280;31129;44.810;10.334;2023-04-07T10:02:42;100702.78;;;15.35
45393;BMP280;31129;44.810;10.334;2023-04-07T10:05:09;100705.50;;;15.24
45393;BMP280;31129;44.810;10.334;2023-04-07T10:07:34;100696.78;;;15.37
45393;BMP280;31129;44.810;10.334;2023-04-07T10:10:00;100695.28;;;15.41
45393;BMP280;31129;44.810;10.334;2023-04-07T10:12:26;100684.03;;;15.34
45393;BMP280;31129;44.810;10.334;2023-04-07T10:14:52;100680.56;;;15.45
45393;BMP280;31129;44.810;10.334;2023-04-07T10:17:19;100681.78;;;15.66
45393;BMP280;31129;44.810;10.334;2023-04-07T10:19:45;100679.50;;;15.81
45393;BMP280;31129;44.810;10.334;2023-04-07T10:22:12;100677.00;;;15.77
45393;BMP280;31129;44.810;10.334;2023-04-07T10:24:53;100670.16;;;16.01
45393;BMP280;31129;44.810;10.334;2023-04-07T10:27:26;100667.47;;;15.84
45393;BMP280;31129;44.810;10.334;2023-04-07T10:29:53;100663.66;;;16.09
45393;BMP280;31129;44.810;10.334;2023-04-07T10:32:22;100662.59;;;16.24
45393;BMP280;31129;44.810;10.334;2023-04-07T10:37:18;100657.94;;;15.96
45393;BMP280;31129;44.810;10.334;2023-04-07T10:39:46;100654.16;;;16.05
45393;BMP280;31129;44.810;10.334;2023-04-07T10:45:07;100645.25;;;16.34
45393;BMP280;31129;44.810;10.334;2023-04-07T10:47:34;100653.13;;;16.13
45393;BMP280;31129;44.810;10.334;2023-04-07T10:50:19;100645.66;;;16.08
45393;BMP280;31129;44.810;10.334;2023-04-07T10:52:46;100649.34;;;16.22
45393;BMP280;31129;44.810;10.334;2023-04-07T11:03:51;100634.63;;;16.90
45393;BMP280;31129;44.810;10.334;2023-04-07T11:06:17;100630.56;;;17.03
45393;BMP280;31129;44.810;10.334;2023-04-07T11:08:44;100633.03;;;16.71
45393;BMP280;31129;44.810;10.334;2023-04-07T11:11:12;100630.59;;;16.97
45393;BMP280;31129;44.810;10.334;2023-04-07T11:13:41;100631.00;;;16.77
45393;BMP280;31129;44.810;10.334;2023-04-07T11:16:07;100634.34;;;16.94
45393;BMP280;31129;44.810;10.334;2023-04-07T11:18:33;100625.19;;;16.80
45393;BMP280;31129;44.810;10.334;2023-04-07T11:20:59;100623.91;;;16.87
45393;BMP280;31129;44.810;10.334;2023-04-07T11:23:25;100627.59;;;16.60
45393;BMP280;31129;44.810;10.334;2023-04-07T11:26:01;100627.84;;;16.62
45393;BMP280;31129;44.810;10.334;2023-04-07T11:28:27;100623.81;;;16.63
45393;BMP280;31129;44.810;10.334;2023-04-07T11:30:53;100622.53;;;16.64
45393;BMP280;31129;44.810;10.334;2023-04-07T11:33:27;100629.28;;;16.27
45393;BMP280;31129;44.810;10.334;2023-04-07T11:35:57;100623.34;;;16.12
45393;BMP280;31129;44.810;10.334;2023-04-07T11:38:28;100624.09;;;16.12
45393;BMP280;31129;44.810;10.334;2023-04-07T11:40:55;100623.72;;;16.38
45393;BMP280;31129;44.810;10.334;2023-04-07T11:43:25;100623.91;;;16.51
45393;BMP280;31129;44.810;10.334;2023-04-07T11:46:12;100616.47;;;16.76
45393;BMP280;31129;44.810;10.334;2023-04-07T11:48:40;100622.47;;;16.34
45393;BMP280;31129;44.810;10.334;2023-04-07T11:51:06;100619.44;;;16.43
45393;BMP280;31129;44.810;10.334;2023-04-07T11:53:35;100625.63;;;16.54
45393;BMP280;31129;44.810;10.334;2023-04-07T11:56:06;100621.78;;;16.69
45393;BMP280;31129;44.810;10.334;2023-04-07T11:58:36;100622.34;;;16.91
45393;BMP280;31129;44.810;10.334;2023-04-07T12:01:04;100618.47;;;17.06
45393;BMP280;31129;44.810;10.334;2023-04-07T12:03:34;100615.22;;;17.07
45393;BMP280;31129;44.810;10.334;2023-04-07T12:06:00;100614.31;;;17.23
45393;BMP280;31129;44.810;10.334;2023-04-07T12:08:37;100619.53;;;17.27
45393;BMP280;31129;44.810;10.334;2023-04-07T12:11:03;100624.22;;;17.08
45393;BMP280;31129;44.810;10.334;2023-04-07T12:13:32;100621.56;;;16.97
45393;BMP280;31129;44.810;10.334;2023-04-07T12:15:58;100619.59;;;16.91
45393;BMP280;31129;44.810;10.334;2023-04-07T12:18:23;100616.81;;;16.97
45393;BMP280;31129;44.810;10.334;2023-04-07T12:20:49;100616.44;;;16.82
45393;BMP280;31129;44.810;10.334;2023-04-07T12:23:15;100615.13;;;16.88
45393;BMP280;31129;44.810;10.334;2023-04-07T12:25:41;100618.44;;;16.81
45393;BMP280;31129;44.810;10.334;2023-04-07T12:28:09;100616.47;;;16.76
45393;BMP280;31129;44.810;10.334;2023-04-07T12:30:35;100611.75;;;16.71
45393;BMP280;31129;44.810;10.334;2023-04-07T12:33:01;100615.31;;;16.61
45393;BMP280;31129;44.810;10.334;2023-04-07T12:35:28;100609.16;;;16.43
45393;BMP280;31129;44.810;10.334;2023-04-07T12:37:55;100612.00;;;16.27
45393;BMP280;31129;44.810;10.334;2023-04-07T12:40:21;100605.84;;;16.09
45393;BMP280;31129;44.810;10.334;2023-04-07T12:42:47;100610.78;;;16.16
45393;BMP280;31129;44.810;10.334;2023-04-07T12:45:12;100613.81;;;16.13
45393;BMP280;31129;44.810;10.334;2023-04-07T12:47:38;100615.13;;;16.06
45393;BMP280;31129;44.810;10.334;2023-04-07T12:50:03;100609.91;;;15.97
45393;BMP280;31129;44.810;10.334;2023-04-07T12:52:29;100613.91;;;15.96
45393;BMP280;31129;44.810;10.334;2023-04-07T12:54:54;100610.16;;;15.94
45393;BMP280;31129;44.810;10.334;2023-04-07T12:57:21;100610.66;;;15.87
45393;BMP280;31129;44.810;10.334;2023-04-07T12:59:46;100614.41;;;15.95
45393;BMP280;31129;44.810;10.334;2023-04-07T13:02:15;100604.69;;;15.83
45393;BMP280;31129;44.810;10.334;2023-04-07T13:04:43;100598.16;;;15.86
45393;BMP280;31129;44.810;10.334;2023-04-07T13:07:11;100600.47;;;15.76
45393;BMP280;31129;44.810;10.334;2023-04-07T13:09:37;100600.94;;;15.80
45393;BMP280;31129;44.810;10.334;2023-04-07T13:12:03;100599.72;;;15.75
45393;BMP280;31129;44.810;10.334;2023-04-07T13:14:28;100596.97;;;15.70
45393;BMP280;31129;44.810;10.334;2023-04-07T13:16:56;100597.50;;;15.63
45393;BMP280;31129;44.810;10.334;2023-04-07T13:19:24;100604.50;;;15.64
45393;BMP280;31129;44.810;10.334;2023-04-07T13:21:50;100612.50;;;15.62
45393;BMP280;31129;44.810;10.334;2023-04-07T13:24:15;100611.03;;;15.50
45393;BMP280;31129;44.810;10.334;2023-04-07T13:26:44;100603.28;;;15.43
45393;BMP280;31129;44.810;10.334;2023-04-07T13:29:09;100607.56;;;15.32
45393;BMP280;31129;44.810;10.334;2023-04-07T13:31:35;100608.06;;;15.31
45393;BMP280;31129;44.810;10.334;2023-04-07T13:34:00;100609.78;;;15.23
45393;BMP280;31129;44.810;10.334;2023-04-07T13:36:25;100596.06;;;15.17
45393;BMP280;31129;44.810;10.334;2023-04-07T13:38:52;100601.03;;;15.13
45393;BMP280;31129;44.810;10.334;2023-04-07T13:41:17;100601.81;;;15.08
45393;BMP280;31129;44.810;10.334;2023-04-07T13:43:43;100602.56;;;15.09
45393;BMP280;31129;44.810;10.334;2023-04-07T13:46:11;100609.03;;;15.11
45393;BMP280;31129;44.810;10.334;2023-04-07T13:48:39;100614.03;;;15.07
45393;BMP280;31129;44.810;10.334;2023-04-07T13:51:04;100613.81;;;15.05
45393;BMP280;31129;44.810;10.334;2023-04-07T13:53:30;100612.31;;;15.04
45393;BMP280;31129;44.810;10.334;2023-04-07T13:55:55;100608.81;;;15.03
45393;BMP280;31129;44.810;10.334;2023-04-07T13:58:24;100615.81;;;14.93
45393;BMP280;31129;44.810;10.334;2023-04-07T14:00:49;100608.03;;;14.97
45393;BMP280;31129;44.810;10.334;2023-04-07T14:03:14;100614.03;;;14.85
45393;BMP280;31129;44.810;10.334;2023-04-07T14:05:40;100609.03;;;14.83
45393;BMP280;31129;44.810;10.334;2023-04-07T14:08:08;100607.03;;;14.89
45393;BMP280;31129;44.810;10.334;2023-04-07T14:10:34;100612.81;;;14.86
45393;BMP280;31129;44.810;10.334;2023-04-07T14:13:00;100610.53;;;14.84